createdAt,value
2017-11-01T00:02:19.678Z,9.98
2017-11-01T00:04:48.415Z,9.98
2017-11-01T00:07:17.062Z,9.97
2017-11-01T00:09:45.702Z,9.98
2017-11-01T00:12:14.390Z,9.98
2017-11-01T00:14:43.066Z,9.98
2017-11-01T00:17:12.662Z,9.98
2017-11-01T00:19:41.298Z,9.98
2017-11-01T00:22:10.002Z,9.99
2017-11-01T00:24:38.822Z,9.99
2017-11-01T00:27:10.818Z,9.99
2017-11-01T00:29:39.509Z,9.99
2017-11-01T00:32:08.149Z,9.99
2017-11-01T00:34:36.857Z,10.00
2017-11-01T00:37:10.494Z,10.00
2017-11-01T00:39:39.214Z,10.00
2017-11-01T00:42:07.907Z,10.00
2017-11-01T00:44:36.594Z,10.00
2017-11-01T00:47:09.080Z,10.01
2017-11-01T00:49:37.735Z,10.01
2017-11-01T00:52:06.439Z,10.01
2017-11-01T00:54:35.096Z,10.00
2017-11-01T00:57:08.101Z,10.02
2017-11-01T00:59:36.733Z,10.02
2017-11-01T01:02:05.413Z,10.02
2017-11-01T01:04:34.136Z,10.02
2017-11-01T01:07:07.630Z,10.02
2017-11-01T01:09:36.340Z,10.03
2017-11-01T01:12:05.004Z,10.01
2017-11-01T01:14:33.688Z,10.02
2017-11-01T01:17:13.088Z,10.04
2017-11-01T01:19:47.200Z,10.04
2017-11-01T01:22:26.422Z,10.04
2017-11-01T01:25:07.739Z,10.05
2017-11-01T01:27:43.644Z,10.05
2017-11-01T01:30:14.823Z,10.05
2017-11-01T01:32:46.243Z,10.06
2017-11-01T01:35:17.066Z,10.06
2017-11-01T01:37:47.910Z,10.07
2017-11-01T01:40:18.713Z,10.07
2017-11-01T01:42:50.336Z,10.08
2017-11-01T01:45:21.224Z,10.08
2017-11-01T01:47:51.827Z,10.10
2017-11-01T01:50:20.886Z,10.11
2017-11-01T01:52:49.587Z,10.11
2017-11-01T01:55:18.271Z,10.11
2017-11-01T01:57:46.997Z,10.12
2017-11-01T02:00:15.752Z,10.11
2017-11-01T02:02:44.127Z,10.12
2017-11-01T02:05:12.830Z,10.13
2017-11-01T02:07:41.588Z,10.13
2017-11-01T02:10:10.324Z,10.13
2017-11-01T02:12:38.994Z,10.16
2017-11-01T02:15:07.739Z,10.16
2017-11-01T02:17:36.263Z,10.17
2017-11-01T02:20:04.669Z,10.18
2017-11-01T02:22:33.052Z,10.16
2017-11-01T02:25:01.408Z,10.20
2017-11-01T02:27:29.899Z,10.19
2017-11-01T02:29:58.391Z,10.21
2017-11-01T02:32:27.074Z,10.22
2017-11-01T02:34:55.468Z,10.23
2017-11-01T02:37:24.195Z,10.23
2017-11-01T02:39:52.931Z,10.24
2017-11-01T02:42:21.638Z,10.25
2017-11-01T02:44:50.408Z,10.24
2017-11-01T02:47:18.827Z,10.26
2017-11-01T02:49:47.605Z,10.26
2017-11-01T02:52:16.005Z,10.27
2017-11-01T02:54:44.415Z,10.28
2017-11-01T02:57:13.165Z,10.28
2017-11-01T02:59:41.513Z,10.30
2017-11-01T03:02:10.539Z,10.30
2017-11-01T03:04:39.238Z,10.31
2017-11-01T03:07:10.403Z,10.32
2017-11-01T03:09:39.135Z,10.32
2017-11-01T03:12:07.814Z,10.33
2017-11-01T03:14:36.480Z,10.33
2017-11-01T03:17:08.367Z,10.35
2017-11-01T03:19:36.856Z,10.36
2017-11-01T03:22:05.258Z,10.36
2017-11-01T03:24:33.657Z,10.37
2017-11-01T03:27:04.622Z,10.38
2017-11-01T03:29:33.300Z,10.39
2017-11-01T03:32:01.995Z,10.38
2017-11-01T03:34:30.349Z,10.39
2017-11-01T03:36:59.074Z,10.42
2017-11-01T03:39:27.838Z,10.42
2017-11-01T03:41:56.257Z,10.43
2017-11-01T03:44:24.621Z,10.43
2017-11-01T03:46:53.431Z,10.45
2017-11-01T03:49:21.782Z,10.44
2017-11-01T03:51:50.391Z,10.46
2017-11-01T03:54:18.833Z,10.47
2017-11-01T03:56:47.191Z,10.48
2017-11-01T03:59:15.886Z,10.49
2017-11-01T04:01:44.301Z,10.50
2017-11-01T04:04:12.678Z,10.51
2017-11-01T04:06:41.093Z,10.52
2017-11-01T04:09:09.445Z,10.54
2017-11-01T04:11:38.389Z,10.55
2017-11-01T04:14:07.130Z,10.57
2017-11-01T04:16:35.843Z,10.56
2017-11-01T04:19:10.380Z,10.58
2017-11-01T04:21:38.735Z,10.59
2017-11-01T04:24:07.415Z,10.59
2017-11-01T04:26:36.101Z,10.61
2017-11-01T04:29:04.791Z,10.62
2017-11-01T04:31:33.191Z,10.63
2017-11-01T04:34:01.855Z,10.64
2017-11-01T04:36:30.426Z,10.65
2017-11-01T04:38:59.110Z,10.66
2017-11-01T04:41:27.810Z,10.68
2017-11-01T04:43:56.602Z,10.69
2017-11-01T04:46:24.958Z,10.70
2017-11-01T04:48:56.173Z,10.72
2017-11-01T04:51:24.812Z,10.72
2017-11-01T04:53:54.823Z,10.74
2017-11-01T04:56:25.359Z,10.76
2017-11-01T04:58:53.540Z,10.78
2017-11-01T05:01:22.226Z,10.78
2017-11-01T05:03:50.637Z,10.79
2017-11-01T05:06:20.309Z,10.80
2017-11-01T05:08:50.189Z,10.80
2017-11-01T05:11:19.287Z,10.84
2017-11-01T05:13:53.422Z,10.83
2017-11-01T05:16:22.184Z,10.86
2017-11-01T05:18:51.873Z,10.88
2017-11-01T05:21:22.319Z,10.89
2017-11-01T05:23:52.855Z,10.91
2017-11-01T05:26:21.591Z,10.92
2017-11-01T05:28:51.710Z,10.94
2017-11-01T05:31:23.139Z,10.95
2017-11-01T05:33:52.486Z,10.95
2017-11-01T05:36:25.242Z,10.97
2017-11-01T05:38:58.224Z,10.99
2017-11-01T05:41:28.971Z,11.00
2017-11-01T05:43:59.104Z,11.01
2017-11-01T05:46:28.280Z,11.01
2017-11-01T05:48:57.058Z,11.04
2017-11-01T05:51:25.422Z,11.06
2017-11-01T05:53:54.411Z,11.07
2017-11-01T05:56:23.530Z,11.08
2017-11-01T05:58:51.959Z,11.09
2017-11-01T06:01:20.341Z,11.10
2017-11-01T06:03:48.739Z,11.11
2017-11-01T06:06:17.451Z,11.12
2017-11-01T06:08:45.874Z,11.13
2017-11-01T06:11:14.898Z,11.14
2017-11-01T06:13:43.657Z,11.17
2017-11-01T06:16:12.003Z,11.17
2017-11-01T06:18:40.763Z,11.20
2017-11-01T06:21:09.822Z,11.21
2017-11-01T06:23:38.504Z,11.21
2017-11-01T06:26:10.701Z,11.22
2017-11-01T06:28:39.568Z,11.25
2017-11-01T06:31:10.046Z,11.26
2017-11-01T06:33:38.467Z,11.25
2017-11-01T06:36:07.286Z,11.28
2017-11-01T06:38:35.644Z,11.29
2017-11-01T06:41:04.416Z,11.30
2017-11-01T06:43:33.106Z,11.32
2017-11-01T06:46:01.795Z,11.32
2017-11-01T06:48:30.206Z,11.33
2017-11-01T06:50:58.605Z,11.34
2017-11-01T06:53:26.971Z,11.37
2017-11-01T06:55:55.669Z,11.38
2017-11-01T06:58:24.362Z,11.39
2017-11-01T07:00:56.015Z,11.39
2017-11-01T07:03:27.367Z,11.42
2017-11-01T07:05:56.061Z,11.41
2017-11-01T07:08:27.735Z,11.43
2017-11-01T07:11:05.137Z,11.42
2017-11-01T07:13:47.241Z,11.44
2017-11-01T07:16:26.406Z,11.46
2017-11-01T07:19:08.327Z,11.46
2017-11-01T07:21:47.244Z,11.48
2017-11-01T07:24:27.294Z,11.49
2017-11-01T07:27:12.964Z,11.49
2017-11-01T07:29:50.612Z,11.53
2017-11-01T07:32:25.783Z,11.56
2017-11-01T07:35:07.653Z,11.55
2017-11-01T07:37:37.490Z,11.55
2017-11-01T07:40:18.514Z,11.57
2017-11-01T07:43:01.790Z,11.59
2017-11-01T07:45:42.904Z,11.61
2017-11-01T07:48:21.002Z,11.61
2017-11-01T07:50:59.694Z,11.64
2017-11-01T07:53:28.974Z,11.66
2017-11-01T07:55:57.668Z,11.66
2017-11-01T07:58:39.659Z,11.68
2017-11-01T08:01:18.056Z,11.69
2017-11-01T08:03:55.714Z,11.70
2017-11-01T08:06:39.996Z,11.71
2017-11-01T08:09:22.475Z,11.72
2017-11-01T08:12:05.755Z,11.73
2017-11-01T08:14:48.325Z,11.74
2017-11-01T08:17:31.115Z,11.76
2017-11-01T08:20:11.690Z,11.77
2017-11-01T08:22:53.607Z,11.81
2017-11-01T08:25:39.496Z,11.80
2017-11-01T08:28:24.427Z,11.82
2017-11-01T08:31:07.462Z,11.82
2017-11-01T08:33:52.604Z,11.85
2017-11-01T08:36:22.467Z,11.87
2017-11-01T08:38:52.055Z,11.88
2017-11-01T08:41:23.573Z,11.89
2017-11-01T08:44:05.631Z,11.91
2017-11-01T08:46:48.906Z,11.96
2017-11-01T08:49:33.444Z,11.97
2017-11-01T08:52:17.413Z,11.97
2017-11-01T08:55:00.301Z,11.99
2017-11-01T08:57:42.390Z,11.99
2017-11-01T09:00:18.227Z,12.01
2017-11-01T09:02:55.851Z,12.02
2017-11-01T09:05:38.514Z,12.02
2017-11-01T09:08:15.533Z,12.03
2017-11-01T09:10:54.811Z,12.06
2017-11-01T09:13:33.580Z,12.07
2017-11-01T09:16:15.215Z,12.08
2017-11-01T09:18:56.314Z,12.11
2017-11-01T09:21:38.415Z,12.12
2017-11-01T09:24:19.138Z,12.12
2017-11-01T09:27:00.686Z,12.15
2017-11-01T09:29:42.795Z,12.15
2017-11-01T09:32:18.746Z,12.16
2017-11-01T09:34:55.696Z,12.16
2017-11-01T09:37:35.447Z,12.18
2017-11-01T09:40:13.774Z,12.20
2017-11-01T09:42:54.773Z,12.21
2017-11-01T09:45:24.221Z,12.23
2017-11-01T09:48:04.890Z,12.23
2017-11-01T09:50:34.453Z,12.23
2017-11-01T09:53:09.138Z,12.25
2017-11-01T09:55:52.030Z,12.27
2017-11-01T09:58:33.506Z,12.27
2017-11-01T10:01:19.099Z,12.29
2017-11-01T10:04:01.463Z,12.29
2017-11-01T10:06:44.341Z,12.30
2017-11-01T10:09:27.389Z,12.30
2017-11-01T10:12:06.139Z,12.30
2017-11-01T10:14:46.325Z,12.33
2017-11-01T10:17:33.810Z,12.33
2017-11-01T10:20:15.557Z,12.33
2017-11-01T10:22:45.261Z,12.34
2017-11-01T10:25:22.659Z,12.33
2017-11-01T10:28:01.843Z,12.36
2017-11-01T10:30:45.682Z,12.36
2017-11-01T10:33:30.732Z,12.38
2017-11-01T10:36:13.642Z,12.40
2017-11-01T10:38:43.025Z,12.39
2017-11-01T10:41:24.765Z,12.38
2017-11-01T10:44:07.066Z,12.40
2017-11-01T10:46:46.692Z,12.40
2017-11-01T10:49:27.267Z,12.45
2017-11-01T10:52:08.866Z,12.42
2017-11-01T10:54:50.075Z,12.42
2017-11-01T10:57:32.067Z,12.44
2017-11-01T11:00:13.917Z,12.43
2017-11-01T11:02:58.054Z,12.45
2017-11-01T11:05:41.702Z,12.43
2017-11-01T11:08:24.795Z,12.46
2017-11-01T11:10:55.885Z,12.44
2017-11-01T11:13:26.826Z,12.47
2017-11-01T11:15:56.542Z,12.46
2017-11-01T11:18:26.308Z,12.47
2017-11-01T11:20:56.248Z,12.49
2017-11-01T11:23:25.113Z,12.48
2017-11-01T11:26:11.445Z,12.46
2017-11-01T11:28:49.025Z,12.50
2017-11-01T11:31:28.642Z,12.49
2017-11-01T11:34:15.197Z,12.51
2017-11-01T11:36:44.968Z,12.51
2017-11-01T11:39:13.629Z,12.51
2017-11-01T11:41:42.368Z,12.52
2017-11-01T11:44:15.327Z,12.53
2017-11-01T11:46:44.022Z,12.54
2017-11-01T11:49:14.882Z,12.54
2017-11-01T11:51:43.601Z,12.56
2017-11-01T11:54:12.340Z,12.54
2017-11-01T11:56:41.110Z,12.55
2017-11-01T11:59:09.835Z,12.56
2017-11-01T12:01:38.617Z,12.55
2017-11-01T12:04:07.337Z,12.57
2017-11-01T12:06:41.098Z,12.58
2017-11-01T12:09:19.141Z,12.57
2017-11-01T12:12:02.347Z,12.57
2017-11-01T12:14:45.095Z,12.58
2017-11-01T12:17:25.749Z,12.58
2017-11-01T12:20:06.043Z,12.57
2017-11-01T12:22:48.662Z,12.58
2017-11-01T12:25:31.088Z,12.58
2017-11-01T12:28:14.284Z,12.59
2017-11-01T12:30:59.065Z,12.60
2017-11-01T12:33:44.016Z,12.60
2017-11-01T12:36:30.213Z,12.59
2017-11-01T12:39:13.501Z,12.59
2017-11-01T12:41:59.023Z,12.60
2017-11-01T12:44:37.739Z,12.59
2017-11-01T12:47:09.109Z,12.59
2017-11-01T12:49:53.802Z,12.61
2017-11-01T12:52:37.162Z,12.60
2017-11-01T12:55:19.579Z,12.61
2017-11-01T12:58:02.421Z,12.63
2017-11-01T13:00:47.587Z,12.63
2017-11-01T13:03:28.229Z,12.63
2017-11-01T13:06:04.333Z,12.64
2017-11-01T13:08:40.892Z,12.63
2017-11-01T13:11:24.455Z,12.65
2017-11-01T13:14:02.524Z,12.67
2017-11-01T13:16:46.324Z,12.66
2017-11-01T13:19:22.741Z,12.67
2017-11-01T13:22:05.128Z,12.67
2017-11-01T13:24:42.504Z,12.68
2017-11-01T13:27:23.548Z,12.67
2017-11-01T13:29:57.848Z,12.69
2017-11-01T13:32:35.656Z,12.68
2017-11-01T13:35:18.952Z,12.70
2017-11-01T13:37:58.270Z,12.70
2017-11-01T13:40:37.654Z,12.71
2017-11-01T13:43:19.948Z,12.74
2017-11-01T13:46:00.795Z,12.74
2017-11-01T13:48:41.520Z,12.73
2017-11-01T13:51:21.517Z,12.76
2017-11-01T13:54:00.836Z,12.75
2017-11-01T13:56:37.863Z,12.76
2017-11-01T13:59:16.707Z,12.76
2017-11-01T14:02:01.069Z,12.77
2017-11-01T14:04:39.160Z,12.76
2017-11-01T14:07:22.755Z,12.77
2017-11-01T14:09:51.975Z,12.77
2017-11-01T14:12:20.676Z,12.79
2017-11-01T14:14:49.322Z,12.79
2017-11-01T14:17:18.013Z,12.81
2017-11-01T14:19:46.823Z,12.79
2017-11-01T14:22:15.522Z,12.80
2017-11-01T14:24:44.164Z,12.79
2017-11-01T14:27:12.879Z,12.80
2017-11-01T14:29:41.556Z,12.80
2017-11-01T14:32:10.230Z,12.81
2017-11-01T14:34:38.940Z,12.80
2017-11-01T14:37:17.343Z,12.79
2017-11-01T14:39:46.054Z,12.80
